sensor_id;sensor_type;location;lat;lon;timestamp;temperature;humidity
64718;DHT22;62506;46.070;14.492;2022-10-26T00:02:13;22.50;70.00
64718;DHT22;62506;46.070;14.492;2022-10-26T00:04:39;22.50;70.10
64718;DHT22;62506;46.070;14.492;2022-10-26T00:07:04;22.50;70.10
64718;DHT22;62506;46.070;14.492;2022-10-26T00:09:30;22.50;70.10
64718;DHT22;62506;46.070;14.492;2022-10-26T00:11:55;22.50;70.10
64718;DHT22;62506;46.070;14.492;2022-10-26T00:14:21;22.50;70.00
64718;DHT22;62506;46.070;14.492;2022-10-26T00:16:46;22.50;70.00
64718;DHT22;62506;46.070;14.492;2022-10-26T00:19:11;22.50;70.40
64718;DHT22;62506;46.070;14.492;2022-10-26T00:21:37;22.50;69.90
64718;DHT22;62506;46.070;14.492;2022-10-26T00:24:02;22.50;69.90
64718;DHT22;62506;46.070;14.492;2022-10-26T00:26:28;22.50;69.70
64718;DHT22;62506;46.070;14.492;2022-10-26T00:28:54;22.50;69.70
64718;DHT22;62506;46.070;14.492;2022-10-26T00:31:21;22.50;69.70
64718;DHT22;62506;46.070;14.492;2022-10-26T00:33:46;22.50;69.60
64718;DHT22;62506;46.070;14.492;2022-10-26T00:36:12;22.60;69.60
64718;DHT22;62506;46.070;14.492;2022-10-26T00:38:41;22.60;69.70
64718;DHT22;62506;46.070;14.492;2022-10-26T00:41:14;22.60;69.50
64718;DHT22;62506;46.070;14.492;2022-10-26T00:43:40;22.60;69.50
64718;DHT22;62506;46.070;14.492;2022-10-26T00:46:07;22.60;69.60
64718;DHT22;62506;46.070;14.492;2022-10-26T00:48:34;22.60;69.70
64718;DHT22;62506;46.070;14.492;2022-10-26T00:51:04;22.50;69.50
64718;DHT22;62506;46.070;14.492;2022-10-26T00:53:30;22.50;69.50
64718;DHT22;62506;46.070;14.492;2022-10-26T00:55:56;22.50;69.60
64718;DHT22;62506;46.070;14.492;2022-10-26T00:58:22;22.50;69.70
64718;DHT22;62506;46.070;14.492;2022-10-26T01:00:49;22.50;69.70
64718;DHT22;62506;46.070;14.492;2022-10-26T01:03:15;22.50;69.90
64718;DHT22;62506;46.070;14.492;2022-10-26T01:05:41;22.50;69.90
64718;DHT22;62506;46.070;14.492;2022-10-26T01:08:08;22.50;70.00
64718;DHT22;62506;46.070;14.492;2022-10-26T01:10:34;22.50;69.90
64718;DHT22;62506;46.070;14.492;2022-10-26T01:13:00;22.50;69.90
64718;DHT22;62506;46.070;14.492;2022-10-26T01:15:32;22.50;69.90
64718;DHT22;62506;46.070;14.492;2022-10-26T01:18:02;22.50;69.70
64718;DHT22;62506;46.070;14.492;2022-10-26T01:23:59;22.50;69.60
64718;DHT22;62506;46.070;14.492;2022-10-26T01:31:04;22.60;69.70
64718;DHT22;62506;46.070;14.492;2022-10-26T01:33:43;22.50;69.50
64718;DHT22;62506;46.070;14.492;2022-10-26T01:36:13;22.60;69.60
64718;DHT22;62506;46.070;14.492;2022-10-26T01:38:43;22.60;69.50
64718;DHT22;62506;46.070;14.492;2022-10-26T01:43:38;22.60;69.60
64718;DHT22;62506;46.070;14.492;2022-10-26T01:46:05;22.60;69.60
64718;DHT22;62506;46.070;14.492;2022-10-26T01:48:31;22.60;69.50
64718;DHT22;62506;46.070;14.492;2022-10-26T01:50:57;22.60;69.50
64718;DHT22;62506;46.070;14.492;2022-10-26T01:53:24;22.60;69.50
64718;DHT22;62506;46.070;14.492;2022-10-26T01:55:50;22.60;69.50
64718;DHT22;62506;46.070;14.492;2022-10-26T02:06:38;22.60;69.50
64718;DHT22;62506;46.070;14.492;2022-10-26T02:11:51;22.60;69.50
64718;DHT22;62506;46.070;14.492;2022-10-26T02:16:52;22.60;69.50
64718;DHT22;62506;46.070;14.492;2022-10-26T02:19:28;22.60;69.40
64718;DHT22;62506;46.070;14.492;2022-10-26T02:22:01;22.60;69.30
64718;DHT22;62506;46.070;14.492;2022-10-26T02:24:29;22.60;69.30
64718;DHT22;62506;46.070;14.492;2022-10-26T02:26:56;22.60;69.50
64718;DHT22;62506;46.070;14.492;2022-10-26T02:29:22;22.60;69.30
64718;DHT22;62506;46.070;14.492;2022-10-26T02:31:48;22.60;69.30
64718;DHT22;62506;46.070;14.492;2022-10-26T02:34:15;22.60;69.30
64718;DHT22;62506;46.070;14.492;2022-10-26T02:36:43;22.60;69.20
64718;DHT22;62506;46.070;14.492;2022-10-26T02:39:10;22.60;69.30
64718;DHT22;62506;46.070;14.492;2022-10-26T02:41:37;22.60;69.40
64718;DHT22;62506;46.070;14.492;2022-10-26T02:46:38;22.60;69.30
64718;DHT22;62506;46.070;14.492;2022-10-26T02:49:04;22.60;69.30
64718;DHT22;62506;46.070;14.492;2022-10-26T02:51:38;22.60;69.30
64718;DHT22;62506;46.070;14.492;2022-10-26T02:59:21;22.60;69.30
64718;DHT22;62506;46.070;14.492;2022-10-26T03:01:49;22.60;69.40
64718;DHT22;62506;46.070;14.492;2022-10-26T03:04:14;22.60;69.50
64718;DHT22;62506;46.070;14.492;2022-10-26T03:06:40;22.60;69.50
64718;DHT22;62506;46.070;14.492;2022-10-26T03:09:05;22.60;69.70
64718;DHT22;62506;46.070;14.492;2022-10-26T03:11:31;22.50;71.10
64718;DHT22;62506;46.070;14.492;2022-10-26T03:13:56;22.60;69.70
64718;DHT22;62506;46.070;14.492;2022-10-26T03:16:22;22.50;69.70
64718;DHT22;62506;46.070;14.492;2022-10-26T03:18:47;22.50;70.00
64718;DHT22;62506;46.070;14.492;2022-10-26T03:21:13;22.50;69.80
64718;DHT22;62506;46.070;14.492;2022-10-26T03:23:38;22.50;70.00
64718;DHT22;62506;46.070;14.492;2022-10-26T03:26:04;22.60;70.40
64718;DHT22;62506;46.070;14.492;2022-10-26T03:28:30;22.50;70.70
64718;DHT22;62506;46.070;14.492;2022-10-26T03:30:55;22.50;70.70
64718;DHT22;62506;46.070;14.492;2022-10-26T03:33:21;22.50;70.90
64718;DHT22;62506;46.070;14.492;2022-10-26T03:35:52;22.50;70.80
64718;DHT22;62506;46.070;14.492;2022-10-26T03:38:18;22.50;70.80
64718;DHT22;62506;46.070;14.492;2022-10-26T03:40:43;22.50;70.60
64718;DHT22;62506;46.070;14.492;2022-10-26T03:43:08;22.50;70.50
64718;DHT22;62506;46.070;14.492;2022-10-26T03:45:34;22.50;70.50
64718;DHT22;62506;46.070;14.492;2022-10-26T03:47:59;22.50;70.50
64718;DHT22;62506;46.070;14.492;2022-10-26T03:50:25;22.50;70.60
64718;DHT22;62506;46.070;14.492;2022-10-26T03:52:50;22.50;70.70
64718;DHT22;62506;46.070;14.492;2022-10-26T03:55:16;22.50;70.70
64718;DHT22;62506;46.070;14.492;2022-10-26T03:57:42;22.50;70.70
64718;DHT22;62506;46.070;14.492;2022-10-26T04:00:12;22.50;70.70
64718;DHT22;62506;46.070;14.492;2022-10-26T04:02:42;22.50;70.60
64718;DHT22;62506;46.070;14.492;2022-10-26T04:05:08;22.50;70.60
64718;DHT22;62506;46.070;14.492;2022-10-26T04:07:33;22.50;70.40
64718;DHT22;62506;46.070;14.492;2022-10-26T04:10:02;22.50;70.40
64718;DHT22;62506;46.070;14.492;2022-10-26T04:12:28;22.60;70.30
64718;DHT22;62506;46.070;14.492;2022-10-26T04:14:53;22.50;70.20
64718;DHT22;62506;46.070;14.492;2022-10-26T04:17:22;22.60;70.20
64718;DHT22;62506;46.070;14.492;2022-10-26T04:19:47;22.60;70.10
64718;DHT22;62506;46.070;14.492;2022-10-26T04:22:13;22.60;70.10
64718;DHT22;62506;46.070;14.492;2022-10-26T04:24:38;22.60;70.00
64718;DHT22;62506;46.070;14.492;2022-10-26T04:27:04;22.60;69.90
64718;DHT22;62506;46.070;14.492;2022-10-26T04:29:29;22.60;69.70
64718;DHT22;62506;46.070;14.492;2022-10-26T04:31:55;22.60;69.70
64718;DHT22;62506;46.070;14.492;2022-10-26T04:34:20;22.60;69.70
64718;DHT22;62506;46.070;14.492;2022-10-26T04:36:46;22.60;69.70
64718;DHT22;62506;46.070;14.492;2022-10-26T04:39:11;22.60;69.90
64718;DHT22;62506;46.070;14.492;2022-10-26T04:41:37;22.70;69.70
64718;DHT22;62506;46.070;14.492;2022-10-26T04:44:02;22.70;69.80
64718;DHT22;62506;46.070;14.492;2022-10-26T04:46:28;22.70;70.00
64718;DHT22;62506;46.070;14.492;2022-10-26T04:48:53;22.70;69.70
64718;DHT22;62506;46.070;14.492;2022-10-26T04:51:19;22.70;69.70
64718;DHT22;62506;46.070;14.492;2022-10-26T04:53:45;22.70;70.00
64718;DHT22;62506;46.070;14.492;2022-10-26T04:56:10;22.70;69.30
64718;DHT22;62506;46.070;14.492;2022-10-26T04:58:36;22.70;69.50
64718;DHT22;62506;46.070;14.492;2022-10-26T05:01:01;22.70;69.10
64718;DHT22;62506;46.070;14.492;2022-10-26T05:03:27;22.70;69.60
64718;DHT22;62506;46.070;14.492;2022-10-26T05:05:53;22.70;68.30
64718;DHT22;62506;46.070;14.492;2022-10-26T05:08:18;22.70;69.00
64718;DHT22;62506;46.070;14.492;2022-10-26T05:10:47;22.70;69.80
64718;DHT22;62506;46.070;14.492;2022-10-26T05:13:14;22.80;70.50
64718;DHT22;62506;46.070;14.492;2022-10-26T05:15:39;22.80;66.60
64718;DHT22;62506;46.070;14.492;2022-10-26T05:18:05;22.70;65.70
64718;DHT22;62506;46.070;14.492;2022-10-26T05:20:32;22.70;67.40
64718;DHT22;62506;46.070;14.492;2022-10-26T05:22:59;22.70;68.40
64718;DHT22;62506;46.070;14.492;2022-10-26T05:25:25;22.80;68.70
64718;DHT22;62506;46.070;14.492;2022-10-26T05:27:51;22.80;69.00
64718;DHT22;62506;46.070;14.492;2022-10-26T05:30:17;22.80;69.00
64718;DHT22;62506;46.070;14.492;2022-10-26T05:32:42;22.90;68.70
64718;DHT22;62506;46.070;14.492;2022-10-26T05:35:08;22.90;67.90
64718;DHT22;62506;46.070;14.492;2022-10-26T05:37:33;22.80;68.60
64718;DHT22;62506;46.070;14.492;2022-10-26T05:39:59;22.90;68.00
64718;DHT22;62506;46.070;14.492;2022-10-26T05:42:24;22.90;68.30
64718;DHT22;62506;46.070;14.492;2022-10-26T05:44:50;22.90;68.40
64718;DHT22;62506;46.070;14.492;2022-10-26T05:47:15;22.90;68.20
64718;DHT22;62506;46.070;14.492;2022-10-26T05:49:41;22.90;68.20
64718;DHT22;62506;46.070;14.492;2022-10-26T05:52:06;22.90;68.20
64718;DHT22;62506;46.070;14.492;2022-10-26T05:54:32;23.00;68.00
64718;DHT22;62506;46.070;14.492;2022-10-26T05:56:57;23.00;68.00
64718;DHT22;62506;46.070;14.492;2022-10-26T05:59:23;23.00;68.10
64718;DHT22;62506;46.070;14.492;2022-10-26T06:02:01;23.00;68.10
64718;DHT22;62506;46.070;14.492;2022-10-26T06:07:03;23.00;68.00
64718;DHT22;62506;46.070;14.492;2022-10-26T06:09:29;23.00;68.00
64718;DHT22;62506;46.070;14.492;2022-10-26T06:11:55;23.00;67.80
64718;DHT22;62506;46.070;14.492;2022-10-26T06:14:20;23.00;67.80
64718;DHT22;62506;46.070;14.492;2022-10-26T06:16:54;23.00;67.80
64718;DHT22;62506;46.070;14.492;2022-10-26T06:27:29;22.90;67.90
64718;DHT22;62506;46.070;14.492;2022-10-26T06:30:03;22.90;68.00
64718;DHT22;62506;46.070;14.492;2022-10-26T06:32:31;23.00;67.80
64718;DHT22;62506;46.070;14.492;2022-10-26T06:35:46;23.00;67.90
64718;DHT22;62506;46.070;14.492;2022-10-26T06:37:43;23.00;67.80
64718;DHT22;62506;46.070;14.492;2022-10-26T06:40:10;23.00;68.00
64718;DHT22;62506;46.070;14.492;2022-10-26T06:42:37;22.90;68.90
64718;DHT22;62506;46.070;14.492;2022-10-26T06:45:02;22.90;68.50
64718;DHT22;62506;46.070;14.492;2022-10-26T06:47:33;22.80;66.00
64718;DHT22;62506;46.070;14.492;2022-10-26T06:52:40;22.80;67.50
64718;DHT22;62506;46.070;14.492;2022-10-26T06:55:12;22.80;67.00
64718;DHT22;62506;46.070;14.492;2022-10-26T06:57:38;22.80;68.30
64718;DHT22;62506;46.070;14.492;2022-10-26T07:00:07;22.80;67.70
64718;DHT22;62506;46.070;14.492;2022-10-26T07:02:38;22.80;68.10
64718;DHT22;62506;46.070;14.492;2022-10-26T07:05:04;22.80;67.80
64718;DHT22;62506;46.070;14.492;2022-10-26T07:07:30;22.80;67.90
64718;DHT22;62506;46.070;14.492;2022-10-26T07:09:56;22.90;68.10
64718;DHT22;62506;46.070;14.492;2022-10-26T07:12:22;22.90;68.50
64718;DHT22;62506;46.070;14.492;2022-10-26T07:14:47;22.90;67.90
64718;DHT22;62506;46.070;14.492;2022-10-26T07:17:12;23.00;69.20
64718;DHT22;62506;46.070;14.492;2022-10-26T07:19:38;23.00;68.30
64718;DHT22;62506;46.070;14.492;2022-10-26T07:22:04;23.00;68.10
64718;DHT22;62506;46.070;14.492;2022-10-26T07:24:30;23.00;69.20
64718;DHT22;62506;46.070;14.492;2022-10-26T07:26:56;23.10;67.80
64718;DHT22;62506;46.070;14.492;2022-10-26T07:29:22;23.10;67.60
64718;DHT22;62506;46.070;14.492;2022-10-26T07:31:48;23.10;68.10
64718;DHT22;62506;46.070;14.492;2022-10-26T07:34:14;23.10;68.30
64718;DHT22;62506;46.070;14.492;2022-10-26T07:36:39;23.10;67.90
64718;DHT22;62506;46.070;14.492;2022-10-26T07:39:05;23.10;68.00
64718;DHT22;62506;46.070;14.492;2022-10-26T07:41:31;23.10;68.30
64718;DHT22;62506;46.070;14.492;2022-10-26T07:43:57;23.20;69.00
64718;DHT22;62506;46.070;14.492;2022-10-26T07:46:25;23.20;68.60
64718;DHT22;62506;46.070;14.492;2022-10-26T07:48:51;23.20;68.50
64718;DHT22;62506;46.070;14.492;2022-10-26T07:51:17;23.20;68.60
64718;DHT22;62506;46.070;14.492;2022-10-26T07:53:42;23.20;68.60
64718;DHT22;62506;46.070;14.492;2022-10-26T07:56:08;23.20;69.60
64718;DHT22;62506;46.070;14.492;2022-10-26T07:58:34;23.20;69.20
64718;DHT22;62506;46.070;14.492;2022-10-26T08:01:04;23.20;69.10
64718;DHT22;62506;46.070;14.492;2022-10-26T08:03:30;23.10;68.90
64718;DHT22;62506;46.070;14.492;2022-10-26T08:05:55;23.10;69.00
64718;DHT22;62506;46.070;14.492;2022-10-26T08:08:22;23.10;69.00
64718;DHT22;62506;46.070;14.492;2022-10-26T08:10:47;23.00;69.00
64718;DHT22;62506;46.070;14.492;2022-10-26T08:13:13;23.00;69.30
64718;DHT22;62506;46.070;14.492;2022-10-26T08:15:39;23.00;69.40
64718;DHT22;62506;46.070;14.492;2022-10-26T08:18:04;22.90;69.60
64718;DHT22;62506;46.070;14.492;2022-10-26T08:20:30;22.90;69.70
64718;DHT22;62506;46.070;14.492;2022-10-26T08:22:56;22.90;69.90
64718;DHT22;62506;46.070;14.492;2022-10-26T08:25:22;22.90;70.00
64718;DHT22;62506;46.070;14.492;2022-10-26T08:27:47;22.90;70.00
64718;DHT22;62506;46.070;14.492;2022-10-26T08:30:13;22.90;70.10
64718;DHT22;62506;46.070;14.492;2022-10-26T08:32:38;22.90;69.40
64718;DHT22;62506;46.070;14.492;2022-10-26T08:35:04;22.90;69.30
64718;DHT22;62506;46.070;14.492;2022-10-26T08:37:29;22.90;69.30
64718;DHT22;62506;46.070;14.492;2022-10-26T08:39:55;22.90;69.70
64718;DHT22;62506;46.070;14.492;2022-10-26T08:42:26;22.90;69.30
64718;DHT22;62506;46.070;14.492;2022-10-26T08:44:54;22.90;69.00
64718;DHT22;62506;46.070;14.492;2022-10-26T08:47:27;22.90;68.70
64718;DHT22;62506;46.070;14.492;2022-10-26T08:49:56;22.90;68.70
64718;DHT22;62506;46.070;14.492;2022-10-26T08:52:31;22.90;68.70
64718;DHT22;62506;46.070;14.492;2022-10-26T08:55:00;23.00;68.60
64718;DHT22;62506;46.070;14.492;2022-10-26T08:57:34;23.00;68.50
64718;DHT22;62506;46.070;14.492;2022-10-26T09:00:02;23.00;68.50
64718;DHT22;62506;46.070;14.492;2022-10-26T09:02:28;22.90;68.60
64718;DHT22;62506;46.070;14.492;2022-10-26T09:04:55;22.10;59.40
64718;DHT22;62506;46.070;14.492;2022-10-26T09:23:12;22.50;65.00
64718;DHT22;62506;46.070;14.492;2022-10-26T09:25:42;22.60;65.00
64718;DHT22;62506;46.070;14.492;2022-10-26T09:28:15;22.70;64.50
64718;DHT22;62506;46.070;14.492;2022-10-26T09:30:44;22.80;64.70
64718;DHT22;62506;46.070;14.492;2022-10-26T09:33:11;22.80;64.70
64718;DHT22;62506;46.070;14.492;2022-10-26T09:35:42;22.80;64.80
64718;DHT22;62506;46.070;14.492;2022-10-26T09:46:15;22.90;65.30
64718;DHT22;62506;46.070;14.492;2022-10-26T09:48:44;23.00;65.30
64718;DHT22;62506;46.070;14.492;2022-10-26T09:51:10;23.00;65.30
64718;DHT22;62506;46.070;14.492;2022-10-26T09:53:36;23.00;66.40
64718;DHT22;62506;46.070;14.492;2022-10-26T09:56:06;23.00;65.50
64718;DHT22;62506;46.070;14.492;2022-10-26T09:58:52;23.00;65.40
64718;DHT22;62506;46.070;14.492;2022-10-26T10:06:35;23.00;65.60
64718;DHT22;62506;46.070;14.492;2022-10-26T10:11:45;23.10;65.70
64718;DHT22;62506;46.070;14.492;2022-10-26T10:14:14;23.10;65.60
64718;DHT22;62506;46.070;14.492;2022-10-26T10:17:17;23.10;65.60
64718;DHT22;62506;46.070;14.492;2022-10-26T10:19:35;23.00;65.80
64718;DHT22;62506;46.070;14.492;2022-10-26T10:22:07;22.90;59.50
64718;DHT22;62506;46.070;14.492;2022-10-26T10:24:34;22.30;57.70
64718;DHT22;62506;46.070;14.492;2022-10-26T10:29:42;21.50;58.70
64718;DHT22;62506;46.070;14.492;2022-10-26T10:32:13;21.30;60.00
64718;DHT22;62506;46.070;14.492;2022-10-26T10:34:39;21.50;60.90
64718;DHT22;62506;46.070;14.492;2022-10-26T10:37:04;21.80;61.50
64718;DHT22;62506;46.070;14.492;2022-10-26T10:41:55;22.30;62.90
64718;DHT22;62506;46.070;14.492;2022-10-26T10:44:25;22.50;63.70
64718;DHT22;62506;46.070;14.492;2022-10-26T10:47:03;22.50;62.70
64718;DHT22;62506;46.070;14.492;2022-10-26T10:49:29;22.60;62.90
64718;DHT22;62506;46.070;14.492;2022-10-26T10:51:55;22.60;63.20
64718;DHT22;62506;46.070;14.492;2022-10-26T10:54:37;22.70;63.50
64718;DHT22;62506;46.070;14.492;2022-10-26T11:07:29;22.70;64.20
64718;DHT22;62506;46.070;14.492;2022-10-26T11:09:56;22.70;64.90
64718;DHT22;62506;46.070;14.492;2022-10-26T11:12:29;22.70;64.80
64718;DHT22;62506;46.070;14.492;2022-10-26T11:15:05;22.70;64.20
64718;DHT22;62506;46.070;14.492;2022-10-26T11:17:44;22.70;63.50
64718;DHT22;62506;46.070;14.492;2022-10-26T11:20:12;22.70;64.30
64718;DHT22;62506;46.070;14.492;2022-10-26T11:25:23;22.70;64.20
64718;DHT22;62506;46.070;14.492;2022-10-26T11:27:59;22.80;64.30
64718;DHT22;62506;46.070;14.492;2022-10-26T11:30:27;22.80;64.70
64718;DHT22;62506;46.070;14.492;2022-10-26T11:32:55;22.80;64.60
64718;DHT22;62506;46.070;14.492;2022-10-26T11:35:42;22.90;64.70
64718;DHT22;62506;46.070;14.492;2022-10-26T11:38:12;22.80;64.70
64718;DHT22;62506;46.070;14.492;2022-10-26T11:43:39;22.90;64.70
64718;DHT22;62506;46.070;14.492;2022-10-26T11:46:01;22.90;64.80
64718;DHT22;62506;46.070;14.492;2022-10-26T11:48:45;22.90;64.00
64718;DHT22;62506;46.070;14.492;2022-10-26T11:53:46;22.90;64.70
64718;DHT22;62506;46.070;14.492;2022-10-26T11:56:15;22.90;64.90
64718;DHT22;62506;46.070;14.492;2022-10-26T11:58:43;22.90;64.80
64718;DHT22;62506;46.070;14.492;2022-10-26T12:01:10;22.90;64.80
64718;DHT22;62506;46.070;14.492;2022-10-26T12:03:38;23.00;65.30
64718;DHT22;62506;46.070;14.492;2022-10-26T12:06:08;23.00;66.10
64718;DHT22;62506;46.070;14.492;2022-10-26T12:08:40;23.00;66.60
64718;DHT22;62506;46.070;14.492;2022-10-26T12:13:53;23.00;67.20
64718;DHT22;62506;46.070;14.492;2022-10-26T12:16:29;23.00;67.30
64718;DHT22;62506;46.070;14.492;2022-10-26T12:18:58;23.00;67.40
64718;DHT22;62506;46.070;14.492;2022-10-26T12:21:29;23.00;67.30
64718;DHT22;62506;46.070;14.492;2022-10-26T12:23:59;22.90;67.20
64718;DHT22;62506;46.070;14.492;2022-10-26T12:39:31;22.90;67.90
64718;DHT22;62506;46.070;14.492;2022-10-26T12:47:04;22.90;68.00
64718;DHT22;62506;46.070;14.492;2022-10-26T12:52:18;22.80;67.20
64718;DHT22;62506;46.070;14.492;2022-10-26T12:54:46;22.80;68.20
64718;DHT22;62506;46.070;14.492;2022-10-26T13:00:15;22.80;68.10
64718;DHT22;62506;46.070;14.492;2022-10-26T13:02:45;22.90;68.20
64718;DHT22;62506;46.070;14.492;2022-10-26T13:07:46;22.90;68.10
64718;DHT22;62506;46.070;14.492;2022-10-26T13:12:44;22.90;68.00
64718;DHT22;62506;46.070;14.492;2022-10-26T13:15:23;22.90;68.20
64718;DHT22;62506;46.070;14.492;2022-10-26T13:20:21;23.00;67.80
64718;DHT22;62506;46.070;14.492;2022-10-26T13:22:47;23.00;67.80
64718;DHT22;62506;46.070;14.492;2022-10-26T13:25:17;23.00;68.80
64718;DHT22;62506;46.070;14.492;2022-10-26T13:27:46;23.00;68.10
64718;DHT22;62506;46.070;14.492;2022-10-26T13:30:33;23.00;68.10
64718;DHT22;62506;46.070;14.492;2022-10-26T13:33:01;23.00;68.10
64718;DHT22;62506;46.070;14.492;2022-10-26T13:35:27;22.90;68.10
64718;DHT22;62506;46.070;14.492;2022-10-26T13:37:53;23.00;68.10
64718;DHT22;62506;46.070;14.492;2022-10-26T13:40:20;23.00;67.90
64718;DHT22;62506;46.070;14.492;2022-10-26T13:42:48;23.00;67.90
64718;DHT22;62506;46.070;14.492;2022-10-26T13:45:18;23.00;67.60
64718;DHT22;62506;46.070;14.492;2022-10-26T13:47:53;23.00;68.40
64718;DHT22;62506;46.070;14.492;2022-10-26T13:50:25;23.00;67.80
64718;DHT22;62506;46.070;14.492;2022-10-26T13:52:53;23.00;67.80
64718;DHT22;62506;46.070;14.492;2022-10-26T13:57:49;23.10;67.50
64718;DHT22;62506;46.070;14.492;2022-10-26T14:00:20;23.10;67.50
64718;DHT22;62506;46.070;14.492;2022-10-26T14:02:46;23.10;67.60
64718;DHT22;62506;46.070;14.492;2022-10-26T14:05:13;23.10;67.70
64718;DHT22;62506;46.070;14.492;2022-10-26T14:07:40;23.10;67.70
64718;DHT22;62506;46.070;14.492;2022-10-26T14:10:06;23.10;67.70
64718;DHT22;62506;46.070;14.492;2022-10-26T14:12:32;23.10;68.60
64718;DHT22;62506;46.070;14.492;2022-10-26T14:15:02;23.10;67.80
64718;DHT22;62506;46.070;14.492;2022-10-26T14:17:30;23.20;67.80
64718;DHT22;62506;46.070;14.492;2022-10-26T14:19:55;23.10;67.90
64718;DHT22;62506;46.070;14.492;2022-10-26T14:22:22;23.10;67.50
64718;DHT22;62506;46.070;14.492;2022-10-26T14:24:55;23.10;67.50
64718;DHT22;62506;46.070;14.492;2022-10-26T14:27:32;23.10;67.60
64718;DHT22;62506;46.070;14.492;2022-10-26T14:29:57;23.20;67.80
64718;DHT22;62506;46.070;14.492;2022-10-26T14:32:31;23.10;67.80
64718;DHT22;62506;46.070;14.492;2022-10-26T14:34:57;23.10;67.70
64718;DHT22;62506;46.070;14.492;2022-10-26T14:37:37;23.10;67.70
64718;DHT22;62506;46.070;14.492;2022-10-26T14:40:04;23.20;67.80
64718;DHT22;62506;46.070;14.492;2022-10-26T14:44:56;23.20;67.70
64718;DHT22;62506;46.070;14.492;2022-10-26T14:47:28;23.20;67.80
64718;DHT22;62506;46.070;14.492;2022-10-26T14:49:55;23.20;67.70
64718;DHT22;62506;46.070;14.492;2022-10-26T14:52:22;23.20;67.70
64718;DHT22;62506;46.070;14.492;2022-10-26T14:57:33;23.20;67.70
64718;DHT22;62506;46.070;14.492;2022-10-26T15:00:00;23.20;67.60
64718;DHT22;62506;46.070;14.492;2022-10-26T15:02:25;23.20;67.60
64718;DHT22;62506;46.070;14.492;2022-10-26T15:05:14;23.20;67.60
64718;DHT22;62506;46.070;14.492;2022-10-26T15:07:41;23.20;67.60
64718;DHT22;62506;46.070;14.492;2022-10-26T15:15:41;23.20;67.90
64718;DHT22;62506;46.070;14.492;2022-10-26T15:18:10;23.20;67.60
64718;DHT22;62506;46.070;14.492;2022-10-26T15:20:45;23.20;67.70
64718;DHT22;62506;46.070;14.492;2022-10-26T15:23:11;23.20;67.70
64718;DHT22;62506;46.070;14.492;2022-10-26T15:25:37;23.20;67.50
64718;DHT22;62506;46.070;14.492;2022-10-26T15:28:07;23.20;67.60
64718;DHT22;62506;46.070;14.492;2022-10-26T15:30:33;23.20;67.60
64718;DHT22;62506;46.070;14.492;2022-10-26T15:32:59;23.20;67.50
64718;DHT22;62506;46.070;14.492;2022-10-26T15:35:34;23.20;67.60
64718;DHT22;62506;46.070;14.492;2022-10-26T15:37:59;23.20;66.70
64718;DHT22;62506;46.070;14.492;2022-10-26T15:40:25;23.20;67.10
64718;DHT22;62506;46.070;14.492;2022-10-26T15:42:52;23.20;67.30
64718;DHT22;62506;46.070;14.492;2022-10-26T15:45:22;23.20;67.40
64718;DHT22;62506;46.070;14.492;2022-10-26T15:47:48;23.30;67.30
64718;DHT22;62506;46.070;14.492;2022-10-26T15:50:17;23.20;67.60
64718;DHT22;62506;46.070;14.492;2022-10-26T15:52:42;23.20;67.40
64718;DHT22;62506;46.070;14.492;2022-10-26T15:55:08;23.20;67.30
64718;DHT22;62506;46.070;14.492;2022-10-26T15:57:34;23.30;67.40
64718;DHT22;62506;46.070;14.492;2022-10-26T16:00:00;23.20;67.40
64718;DHT22;62506;46.070;14.492;2022-10-26T16:02:25;23.20;67.60
64718;DHT22;62506;46.070;14.492;2022-10-26T16:04:51;23.20;67.60
64718;DHT22;62506;46.070;14.492;2022-10-26T16:07:17;23.20;67.60
64718;DHT22;62506;46.070;14.492;2022-10-26T16:09:42;23.20;67.50
64718;DHT22;62506;46.070;14.492;2022-10-26T16:12:11;23.20;67.60
64718;DHT22;62506;46.070;14.492;2022-10-26T16:14:37;23.20;67.60
64718;DHT22;62506;46.070;14.492;2022-10-26T16:17:03;23.20;67.60
64718;DHT22;62506;46.070;14.492;2022-10-26T16:19:29;23.20;67.60
64718;DHT22;62506;46.070;14.492;2022-10-26T16:21:54;23.20;67.60
64718;DHT22;62506;46.070;14.492;2022-10-26T16:24:20;23.20;67.70
64718;DHT22;62506;46.070;14.492;2022-10-26T16:26:45;23.20;67.60
64718;DHT22;62506;46.070;14.492;2022-10-26T16:29:11;23.20;67.70
64718;DHT22;62506;46.070;14.492;2022-10-26T16:31:37;23.20;67.60
64718;DHT22;62506;46.070;14.492;2022-10-26T16:34:02;23.20;67.70
64718;DHT22;62506;46.070;14.492;2022-10-26T16:36:29;23.20;67.60
64718;DHT22;62506;46.070;14.492;2022-10-26T16:39:14;23.20;67.80
64718;DHT22;62506;46.070;14.492;2022-10-26T16:41:40;23.20;67.60
64718;DHT22;62506;46.070;14.492;2022-10-26T16:44:05;23.20;67.80
64718;DHT22;62506;46.070;14.492;2022-10-26T16:46:31;23.20;67.60
64718;DHT22;62506;46.070;14.492;2022-10-26T16:48:57;23.20;67.60
64718;DHT22;62506;46.070;14.492;2022-10-26T16:51:24;23.20;67.60
64718;DHT22;62506;46.070;14.492;2022-10-26T16:53:54;23.20;67.80
64718;DHT22;62506;46.070;14.492;2022-10-26T16:56:21;23.20;67.70
64718;DHT22;62506;46.070;14.492;2022-10-26T16:58:47;23.10;67.60
64718;DHT22;62506;46.070;14.492;2022-10-26T17:01:12;23.20;67.80
64718;DHT22;62506;46.070;14.492;2022-10-26T17:03:42;23.10;67.70
64718;DHT22;62506;46.070;14.492;2022-10-26T17:06:08;23.10;67.80
64718;DHT22;62506;46.070;14.492;2022-10-26T17:08:34;23.10;67.90
64718;DHT22;62506;46.070;14.492;2022-10-26T17:11:07;23.00;67.90
64718;DHT22;62506;46.070;14.492;2022-10-26T17:13:33;23.00;67.90
64718;DHT22;62506;46.070;14.492;2022-10-26T17:16:06;23.00;68.80
64718;DHT22;62506;46.070;14.492;2022-10-26T17:18:31;23.00;68.00
64718;DHT22;62506;46.070;14.492;2022-10-26T17:20:57;23.00;68.00
64718;DHT22;62506;46.070;14.492;2022-10-26T17:23:23;23.00;68.00
64718;DHT22;62506;46.070;14.492;2022-10-26T17:25:48;23.00;67.90
64718;DHT22;62506;46.070;14.492;2022-10-26T17:28:14;23.00;68.00
64718;DHT22;62506;46.070;14.492;2022-10-26T17:30:39;23.00;68.00
64718;DHT22;62506;46.070;14.492;2022-10-26T17:33:05;23.00;68.10
64718;DHT22;62506;46.070;14.492;2022-10-26T17:35:31;22.90;68.00
64718;DHT22;62506;46.070;14.492;2022-10-26T17:37:57;22.90;68.10
64718;DHT22;62506;46.070;14.492;2022-10-26T17:40:22;22.90;68.00
64718;DHT22;62506;46.070;14.492;2022-10-26T17:42:48;22.90;68.00
64718;DHT22;62506;46.070;14.492;2022-10-26T17:45:13;22.90;68.20
64718;DHT22;62506;46.070;14.492;2022-10-26T17:47:39;22.90;68.20